Weather History for Altus AFB, OK

Change the Weather History Date:

Thursday, September 15, 2011

  Actual Average Record
Temperature  
Mean Temperature 62 °F -  
Max Temperature 67 °F 85 °F 98 °F (1997)
Min Temperature 55 °F 62 °F 50 °F (2003)
Degree Days  
Heating Degree Days 4    
Growing Degree Days 12 (Base 50)    
Moisture  
Dew Point 54 °F    
Average Humidity 82    
Maximum Humidity 97    
Minimum Humidity 62    
Precipitation  
Precipitation 0.25 in - - ()
Sea Level Pressure  
Sea Level Pressure 30.16 in    
Wind  
Wind Speed 12 mph (NE)    
Max Wind Speed 22 mph    
Max Gust Speed 23 mph    
Visibility 10 miles    
Events Rain    
Averages and records for this station are not official NWS values.
T = Trace of Precipitation, MM = Missing Value Source: NWS Daily Summary

Daily Weather History Graph

Daily Weather History Graph

Search for Another Location

Airport:

Trip Planner

Search our weather history database for the weather conditions in past years. The results will help you decide how hot, cold, wet, or windy it might be!

Date:

Astronomy

Sep. 15, 2011 Rise Set
Actual Time 7:19 AM CDT 7:44 PM CDT
Civil Twilight 6:54 AM CDT 8:09 PM CDT
Nautical Twilight 6:24 AM CDT 8:39 PM CDT
Astronomical Twilight 5:54 AM CDT 9:09 PM CDT
Moon 9:12 PM CDT (9/15) 10:18 AM CDT (9/15)
Length of Visible Light 13h 14m
Length of Day
12h 24m
Waning Gibbous, 90% of the Moon is Illuminated
Sep 15
Waning Gibbous
Sep 20
Last Quarter
Sep 27
New
Oct 3
First Quarter
Oct 11
Full

Hourly Weather History & Observations

Time (CDT) Temp. Dew Point Humidity Pressure Visibility Wind Dir Wind Speed Gust Speed Precip Events Conditions
12:48 AM 68.0 °F 55.4 °F 64% 30.12 in 10.0 mi NE 12.7 mph - N/A Rain Light Rain
12:55 AM 68.2 °F 54.9 °F 62% 30.12 in 10.0 mi NE 12.7 mph - 0.00 in Rain Light Rain
1:09 AM 66.2 °F 57.2 °F 73% 30.10 in 10.0 mi ENE 13.8 mph - N/A Rain Rain
1:16 AM 64.4 °F 57.2 °F 77% 30.09 in 10.0 mi ENE 16.1 mph - N/A Rain Light Rain
1:17 AM 64.4 °F 57.2 °F 77% 30.09 in 10.0 mi ENE 16.1 mph - N/A Rain Light Rain
1:22 AM 64.4 °F 57.2 °F 77% 30.08 in 9.0 mi ENE 20.7 mph - N/A Rain Rain
1:29 AM 64.4 °F 55.4 °F 73% 30.09 in 8.0 mi ENE 21.9 mph - N/A Rain Rain
1:30 AM 64.4 °F 55.4 °F 73% 30.09 in 8.0 mi ENE 21.9 mph - N/A Rain Rain
1:40 AM 62.6 °F 55.4 °F 77% 30.08 in 9.0 mi ENE 19.6 mph - N/A Rain Light Rain
1:55 AM 63.5 °F 55.4 °F 75% 30.09 in 10.0 mi NE 13.8 mph 23.0 mph 0.05 in   Scattered Clouds
2:00 AM 64.4 °F 55.4 °F 73% 30.12 in 10.0 mi NE 8.1 mph 17.3 mph N/A   Mostly Cloudy
2:15 AM 64.4 °F 55.4 °F 73% 30.14 in 10.0 mi ENE 6.9 mph - N/A   Light Drizzle
2:55 AM 63.0 °F 55.4 °F 76% 30.12 in 10.0 mi ENE 11.5 mph - 0.00 in   Light Drizzle
2:56 AM 62.6 °F 55.4 °F 77% 30.12 in 10.0 mi NE 13.8 mph - N/A   Overcast
3:22 AM 62.6 °F 53.6 °F 72% 30.14 in 10.0 mi ENE 5.8 mph - N/A Rain Light Rain
3:55 AM 61.5 °F 53.8 °F 76% 30.14 in 10.0 mi ENE 10.4 mph - 0.00 in   Light Drizzle
4:35 AM 60.8 °F 53.6 °F 77% 30.14 in 10.0 mi NE 9.2 mph - N/A   Mostly Cloudy
4:41 AM 60.8 °F 53.6 °F 77% 30.14 in 10.0 mi NE 10.4 mph - N/A   Light Drizzle
4:55 AM 60.1 °F 53.4 °F 79% 30.14 in 10.0 mi ENE 13.8 mph - 0.01 in   Light Drizzle
4:57 AM 60.8 °F 53.6 °F 77% 30.13 in 10.0 mi ENE 13.8 mph - N/A   Partly Cloudy
5:55 AM 59.7 °F 51.6 °F 75% 30.14 in 10.0 mi ENE 15.0 mph - 0.00 in   Mostly Cloudy
6:55 AM 59.5 °F 50.9 °F 73% 30.15 in 10.0 mi East 11.5 mph - N/A   Clear
7:55 AM 60.3 °F 50.5 °F 70% 30.18 in 10.0 mi NE 10.4 mph - N/A   Clear
8:35 AM 60.8 °F 50.0 °F 68% 30.20 in 10.0 mi NE 4.6 mph - N/A   Light Drizzle
8:55 AM 60.4 °F 51.8 °F 73% 30.21 in 10.0 mi NE 6.9 mph - 0.00 in Rain Light Rain
9:06 AM 59.0 °F 51.8 °F 77% 30.21 in 10.0 mi NE 11.5 mph - N/A Rain Light Rain
9:18 AM 59.0 °F 53.6 °F 82% 30.22 in 10.0 mi NNE 9.2 mph - N/A Rain Light Rain
9:55 AM 57.9 °F 53.2 °F 84% 30.23 in 10.0 mi NE 13.8 mph - 0.01 in Rain Light Rain
10:00 AM 57.2 °F 53.6 °F 88% 30.25 in 10.0 mi NE 12.7 mph - N/A Rain Rain
10:55 AM 57.2 °F 54.0 °F 89% 30.24 in 10.0 mi NE 12.7 mph - 0.04 in Rain Light Rain
11:17 AM 57.2 °F 55.4 °F 94% 30.23 in 6.0 mi NE 15.0 mph - N/A Rain Heavy Rain
11:21 AM 57.2 °F 55.4 °F 94% 30.25 in 3.0 mi NE 9.2 mph - N/A Rain Heavy Rain
11:33 AM 57.2 °F 55.4 °F 94% 30.24 in 5.0 mi NE 11.5 mph - N/A Rain Rain
11:55 AM 57.2 °F 56.1 °F 96% 30.24 in 10.0 mi NE 11.5 mph - 0.11 in Rain Light Rain
12:27 PM 57.2 °F 55.4 °F 94% 30.24 in 10.0 mi ENE 13.8 mph - N/A Rain Light Rain
12:55 PM 57.4 °F 56.5 °F 97% 30.21 in 10.0 mi NE 13.8 mph - 0.02 in Rain Light Rain
1:55 PM 58.5 °F 55.8 °F 91% 30.19 in 10.0 mi East 11.5 mph - 0.00 in   Light Drizzle
2:16 PM 59.0 °F 55.4 °F 88% 30.19 in 10.0 mi East 13.8 mph - N/A   Light Drizzle
2:18 PM 59.0 °F 55.4 °F 88% 30.18 in 10.0 mi East 11.5 mph - N/A   Scattered Clouds
2:23 PM 59.0 °F 55.4 °F 88% 30.18 in 10.0 mi East 11.5 mph - N/A   Mostly Cloudy
2:55 PM 58.6 °F 54.5 °F 86% 30.16 in 10.0 mi East 11.5 mph - 0.00 in   Mostly Cloudy
3:55 PM 59.5 °F 53.8 °F 81% 30.17 in 10.0 mi East 10.4 mph - N/A   Mostly Cloudy
3:58 PM 60.8 °F 53.6 °F 77% 30.17 in 10.0 mi ENE 9.2 mph - N/A   Mostly Cloudy
4:31 PM 60.8 °F 53.6 °F 77% 30.18 in 10.0 mi East 6.9 mph - N/A   Mostly Cloudy
4:46 PM 60.8 °F 53.6 °F 77% 30.16 in 10.0 mi East 11.5 mph - N/A   Mostly Cloudy
4:55 PM 60.3 °F 54.1 °F 80% 30.15 in 10.0 mi ENE 10.4 mph - N/A   Mostly Cloudy
5:22 PM 59.0 °F 53.6 °F 82% 30.16 in 10.0 mi NE 5.8 mph - N/A   Mostly Cloudy
5:55 PM 58.5 °F 54.0 °F 85% 30.16 in 10.0 mi NNE 11.5 mph - N/A   Mostly Cloudy
6:04 PM 59.0 °F 53.6 °F 82% 30.16 in 10.0 mi NE 11.5 mph - N/A   Mostly Cloudy
6:21 PM 59.0 °F 53.6 °F 82% 30.14 in 10.0 mi NE 13.8 mph - N/A   Light Drizzle
6:30 PM 59.0 °F 53.6 °F 82% 30.14 in 10.0 mi NE 11.5 mph - N/A   Mostly Cloudy
6:44 PM 59.0 °F 53.6 °F 82% 30.15 in 10.0 mi NNE 10.4 mph - N/A   Overcast
6:55 PM 58.6 °F 54.1 °F 85% 30.15 in 10.0 mi NE 9.2 mph - 0.00 in   Overcast
7:11 PM 59.0 °F 53.6 °F 82% 30.13 in 10.0 mi NE 15.0 mph - N/A   Overcast
7:36 PM 59.0 °F 53.6 °F 82% 30.15 in 10.0 mi NE 8.1 mph - N/A   Overcast
7:55 PM 58.5 °F 54.0 °F 85% 30.15 in 10.0 mi NE 9.2 mph - N/A   Overcast
8:02 PM 57.2 °F 53.6 °F 88% 30.14 in 10.0 mi NE 8.1 mph - N/A   Light Drizzle
8:27 PM 57.2 °F 53.6 °F 88% 30.13 in 10.0 mi NE 10.4 mph - N/A   Mostly Cloudy
8:55 PM 57.4 °F 53.6 °F 87% 30.14 in 10.0 mi NE 11.5 mph - 0.00 in   Overcast
9:02 PM 57.2 °F 53.6 °F 88% 30.14 in 10.0 mi NE 11.5 mph - N/A Rain Light Rain
9:18 PM 57.2 °F 53.6 °F 88% 30.16 in 10.0 mi NE 10.4 mph - N/A   Mostly Cloudy
9:55 PM 57.4 °F 54.0 °F 88% 30.17 in 10.0 mi NNE 5.8 mph - 0.00 in   Overcast
10:32 PM 57.2 °F 53.6 °F 88% 30.16 in 10.0 mi NE 9.2 mph - N/A   Scattered Clouds
10:55 PM 56.5 °F 53.1 °F 88% 30.16 in 10.0 mi NE 9.2 mph - N/A   Clear
11:01 PM 55.4 °F 53.6 °F 94% 30.16 in 10.0 mi NE 10.4 mph - N/A Rain Light Rain
11:15 PM 55.4 °F 53.6 °F 94% 30.16 in 10.0 mi NE 10.4 mph - N/A   Clear
11:23 PM 55.4 °F 53.6 °F 94% 30.16 in 10.0 mi NE 9.2 mph - N/A   Light Drizzle
11:35 PM 55.4 °F 53.6 °F 94% 30.15 in 10.0 mi NE 8.1 mph - N/A Rain Light Rain
11:55 PM 55.6 °F 53.4 °F 92% 30.16 in 10.0 mi NE 8.1 mph - 0.01 in Rain Light Rain